Time;durP1;ratioP1;P1;durP2;ratioP2;P2;SDS_P1;SDS_P2;PMS_P1;PMS_P2;Temp;Humidity;BMP_temperature;BMP_pressure;BME280_temperature;BME280_humidity;BME280_pressure;Samples;Min_cycle;Max_cycle;Signal;HPM_P1;HPM_P2
2022/03/05 00:00:51;;;;;;;7.30;2.08;;;;;;;;;;5075199;28;20566;-72
2022/03/05 00:03:30;;;;;;;3.27;1.60;;;;;;;;;;5080767;28;20055;-72
2022/03/05 00:05:57;;;;;;;7.77;2.30;;;;;;;;;;5075910;28;20624;-72
2022/03/05 00:08:24;;;;;;;5.40;1.93;;;;;;;;;;5077672;28;20135;-72
2022/03/05 00:10:58;;;;;;;3.57;1.80;;;;;;;;;;5075659;28;20477;-72
2022/03/05 00:13:24;;;;;;;5.55;2.00;;;;;;;;;;5075457;28;20075;-72
2022/03/05 00:15:51;;;;;;;6.87;2.07;;;;;;;;;;5083906;28;20123;-72
2022/03/05 00:18:22;;;;;;;3.97;1.57;;;;;;;;;;5077917;28;20151;-72
2022/03/05 00:20:51;;;;;;;4.63;1.65;;;;;;;;;;5081356;28;20084;-72
2022/03/05 00:23:18;;;;;;;5.73;1.60;;;;;;;;;;5083982;28;20044;-72
2022/03/05 00:25:51;;;;;;;2.50;1.53;;;;;;;;;;5078314;28;20867;-72
2022/03/05 00:28:18;;;;;;;3.15;1.58;;;;;;;;;;5082008;28;20095;-72
2022/03/05 00:30:45;;;;;;;2.78;1.50;;;;;;;;;;5084268;28;20102;-72
2022/03/05 00:33:12;;;;;;;4.33;1.90;;;;;;;;;;5084962;28;20079;-72
2022/03/05 00:35:38;;;;;;;12.50;1.73;;;;;;;;;;5083835;28;20482;-72
2022/03/05 00:38:04;;;;;;;1.20;1.03;;;;;;;;;;5076142;28;20131;-72
2022/03/05 00:40:31;;;;;;;1.95;1.25;;;;;;;;;;5081792;28;20176;-72
2022/03/05 00:42:57;;;;;;;4.38;1.40;;;;;;;;;;5080598;28;20561;-72
2022/03/05 00:45:24;;;;;;;4.90;1.77;;;;;;;;;;5080942;28;20079;-72
2022/03/05 00:47:57;;;;;;;2.20;1.47;;;;;;;;;;5080618;28;20052;-72
2022/03/05 00:50:23;;;;;;;5.90;1.83;;;;;;;;;;5078956;28;20535;-72
2022/03/05 00:52:50;;;;;;;2.57;1.13;;;;;;;;;;5080439;28;20133;-72
2022/03/05 00:55:17;;;;;;;3.50;1.90;;;;;;;;;;5077356;28;20829;-72
2022/03/05 00:57:43;;;;;;;4.47;1.83;;;;;;;;;;5084698;28;20476;-73
2022/03/05 01:00:11;;;;;;;3.70;1.60;;;;;;;;;;5081003;28;20466;-72
2022/03/05 01:02:39;;;;;;;3.50;1.70;;;;;;;;;;5081075;28;20843;-72
2022/03/05 01:05:06;;;;;;;6.50;2.10;;;;;;;;;;5077384;28;20047;-72
2022/03/05 01:07:33;;;;;;;7.93;2.55;;;;;;;;;;5081611;28;20048;-72
2022/03/05 01:10:00;;;;;;;3.50;1.75;;;;;;;;;;5080751;28;20044;-72
2022/03/05 01:12:26;;;;;;;4.57;2.00;;;;;;;;;;5080253;28;20071;-72
2022/03/05 01:14:53;;;;;;;6.00;2.30;;;;;;;;;;5077417;28;20393;-72
2022/03/05 01:17:23;;;;;;;5.80;2.00;;;;;;;;;;5074939;28;20606;-72
2022/03/05 01:19:49;;;;;;;6.60;1.60;;;;;;;;;;5074083;28;20147;-72
2022/03/05 01:22:16;;;;;;;6.37;2.13;;;;;;;;;;5073494;28;20394;-73
2022/03/05 01:24:49;;;;;;;6.77;1.73;;;;;;;;;;5074827;28;20389;-72
2022/03/05 01:27:17;;;;;;;5.57;2.10;;;;;;;;;;5078530;28;20044;-72
2022/03/05 01:29:43;;;;;;;5.80;2.00;;;;;;;;;;5080054;28;20484;-72
2022/03/05 01:32:11;;;;;;;5.50;1.63;;;;;;;;;;5080317;28;20052;-72
2022/03/05 01:34:37;;;;;;;8.93;1.60;;;;;;;;;;5073084;28;20449;-72
2022/03/05 01:37:05;;;;;;;4.90;2.20;;;;;;;;;;5075919;28;20151;-73
2022/03/05 01:39:35;;;;;;;6.60;2.00;;;;;;;;;;5078283;28;20075;-72
2022/03/05 01:42:01;;;;;;;6.00;2.17;;;;;;;;;;5075950;28;20075;-73
2022/03/05 01:44:28;;;;;;;3.58;2.67;;;;;;;;;;5074390;28;20706;-73
2022/03/05 01:47:02;;;;;;;6.27;2.07;;;;;;;;;;5073121;28;20052;-72
2022/03/05 01:49:32;;;;;;;;;;;;;;;;;;5073714;28;20052;-72
2022/03/05 01:51:58;;;;;;;3.80;1.90;;;;;;;;;;5074983;28;19954;-72
2022/03/05 01:54:25;;;;;;;5.13;1.63;;;;;;;;;;5077574;28;20078;-72
2022/03/05 01:56:53;;;;;;;6.30;1.90;;;;;;;;;;5081450;28;20080;-72
2022/03/05 01:59:20;;;;;;;5.33;2.00;;;;;;;;;;5077710;28;20080;-73
2022/03/05 02:01:49;;;;;;;6.70;1.90;;;;;;;;;;5074118;28;20508;-72
2022/03/05 02:04:15;;;;;;;8.63;2.33;;;;;;;;;;5079167;28;20106;-72
2022/03/05 02:06:42;;;;;;;5.80;1.75;;;;;;;;;;5079806;28;20121;-72
2022/03/05 02:09:08;;;;;;;3.17;1.95;;;;;;;;;;5078733;28;20036;-72
2022/03/05 02:11:35;;;;;;;2.38;1.65;;;;;;;;;;5084204;28;20088;-72
2022/03/05 02:14:02;;;;;;;3.10;1.40;;;;;;;;;;5079263;28;20070;-73
2022/03/05 02:16:29;;;;;;;4.07;1.85;;;;;;;;;;5081754;28;20303;-73
2022/03/05 02:18:57;;;;;;;5.10;2.20;;;;;;;;;;5079629;28;20403;-73
2022/03/05 02:21:24;;;;;;;10.90;2.13;;;;;;;;;;5078128;28;20135;-73
2022/03/05 02:23:51;;;;;;;5.63;2.00;;;;;;;;;;5080080;28;20138;-73
2022/03/05 02:26:18;;;;;;;3.25;1.58;;;;;;;;;;5078739;28;20075;-73
2022/03/05 02:28:44;;;;;;;3.33;1.65;;;;;;;;;;5078542;28;20698;-73
2022/03/05 02:31:11;;;;;;;2.45;1.90;;;;;;;;;;5080459;28;20126;-73
2022/03/05 02:33:41;;;;;;;10.07;2.30;;;;;;;;;;5079258;28;20118;-73
2022/03/05 02:36:07;;;;;;;3.53;2.03;;;;;;;;;;5076547;28;20080;-72
2022/03/05 02:38:34;;;;;;;4.55;1.90;;;;;;;;;;5081170;28;20087;-73
2022/03/05 02:41:01;;;;;;;1.52;1.42;;;;;;;;;;5078589;28;20490;-72
2022/03/05 02:43:28;;;;;;;2.13;1.55;;;;;;;;;;5082248;28;20158;-73
2022/03/05 02:45:54;;;;;;;2.92;1.63;;;;;;;;;;5080557;28;20095;-73
2022/03/05 02:48:28;;;;;;;5.20;1.90;;;;;;;;;;5079362;28;20059;-73
2022/03/05 02:50:54;;;;;;;5.18;1.80;;;;;;;;;;5079279;28;20162;-73
2022/03/05 02:53:21;;;;;;;1.63;1.13;;;;;;;;;;5080622;28;20090;-73
2022/03/05 02:55:48;;;;;;;2.03;1.58;;;;;;;;;;5080704;28;20141;-72
2022/03/05 02:58:14;;;;;;;5.03;1.53;;;;;;;;;;5079865;28;20559;-73
2022/03/05 03:00:41;;;;;;;4.43;1.80;;;;;;;;;;5065442;28;20323;-73
2022/03/05 03:03:08;;;;;;;6.30;1.90;;;;;;;;;;5078980;28;20061;-72
2022/03/05 03:05:34;;;;;;;7.15;2.13;;;;;;;;;;5077635;28;20052;-73
2022/03/05 03:08:01;;;;;;;7.80;1.90;;;;;;;;;;5080961;28;20067;-73
2022/03/05 03:10:29;;;;;;;3.63;1.83;;;;;;;;;;5082710;28;20053;-73
2022/03/05 03:12:55;;;;;;;6.10;1.48;;;;;;;;;;5080397;28;20162;-73
2022/03/05 03:15:22;;;;;;;5.20;1.83;;;;;;;;;;5083540;28;20083;-73
2022/03/05 03:17:54;;;;;;;3.43;1.97;;;;;;;;;;5087060;28;20169;-73
2022/03/05 03:20:24;;;;;;;4.13;1.70;;;;;;;;;;5085778;28;20048;-73
2022/03/05 03:22:51;;;;;;;4.27;1.80;;;;;;;;;;5081207;28;20133;-73
2022/03/05 03:25:18;;;;;;;3.07;2.20;;;;;;;;;;5082992;28;20071;-73
2022/03/05 03:27:44;;;;;;;7.63;1.50;;;;;;;;;;5082193;28;20808;-73
2022/03/05 03:30:12;;;;;;;4.65;2.22;;;;;;;;;;5081106;28;20096;-73
2022/03/05 03:32:45;;;;;;;5.90;2.00;;;;;;;;;;5081146;28;20044;-73
2022/03/05 03:35:12;;;;;;;3.97;2.17;;;;;;;;;;5081941;28;20423;-73
2022/03/05 03:37:39;;;;;;;;;;;;;;;;;;5082236;28;20091;-73
2022/03/05 03:40:07;;;;;;;3.83;1.50;;;;;;;;;;5079268;28;19921;-73
2022/03/05 03:42:34;;;;;;;3.07;1.90;;;;;;;;;;5082931;28;20140;-74
2022/03/05 03:45:00;;;;;;;4.32;1.70;;;;;;;;;;5081816;28;20071;-73
2022/03/05 03:47:30;;;;;;;7.37;2.40;;;;;;;;;;5085321;28;20580;-73
2022/03/05 03:49:56;;;;;;;2.60;1.58;;;;;;;;;;5080595;28;20560;-73
2022/03/05 03:52:23;;;;;;;2.45;1.67;;;;;;;;;;5084299;28;20076;-73
2022/03/05 03:54:50;;;;;;;5.32;2.30;;;;;;;;;;5080980;28;20076;-73
2022/03/05 03:57:16;;;;;;;3.97;2.25;;;;;;;;;;5080249;28;20129;-73
2022/03/05 03:59:45;;;;;;;3.28;1.50;;;;;;;;;;5084359;28;20071;-73
2022/03/05 04:02:13;;;;;;;6.80;3.23;;;;;;;;;;5063563;28;20135;-73
2022/03/05 04:04:41;;;;;;;5.32;1.88;;;;;;;;;;5079954;28;20052;-73
2022/03/05 04:10:02;;;;;;;3.30;2.27;;;;;;;;;;5080673;28;20084;-73
2022/03/05 04:12:29;;;;;;;4.40;1.93;;;;;;;;;;5080436;28;20079;-73
2022/03/05 04:14:55;;;;;;;8.13;2.30;;;;;;;;;;5080347;28;20138;-73
2022/03/05 04:17:28;;;;;;;5.40;1.93;;;;;;;;;;5079058;28;20036;-73
2022/03/05 04:19:54;;;;;;;6.75;2.00;;;;;;;;;;5082226;28;20162;-73
2022/03/05 04:22:20;;;;;;;6.72;2.15;;;;;;;;;;5081541;28;20131;-74
2022/03/05 04:24:48;;;;;;;3.78;1.80;;;;;;;;;;5081911;28;20051;-73
2022/03/05 04:27:14;;;;;;;1.98;1.70;;;;;;;;;;5066171;28;20044;-73
2022/03/05 04:29:41;;;;;;;5.20;1.60;;;;;;;;;;5083098;28;20048;-73
2022/03/05 04:32:07;;;;;;;7.75;2.15;;;;;;;;;;5080268;28;20336;-73
2022/03/05 04:34:34;;;;;;;8.05;2.15;;;;;;;;;;5083228;28;20075;-73
2022/03/05 04:37:01;;;;;;;5.57;2.30;;;;;;;;;;5085144;28;20047;-74
2022/03/05 04:39:29;;;;;;;3.93;2.00;;;;;;;;;;5071377;28;20131;-73
2022/03/05 04:41:57;;;;;;;7.70;2.83;;;;;;;;;;5080477;28;20055;-73
2022/03/05 04:44:24;;;;;;;2.60;1.70;;;;;;;;;;5084807;28;20088;-73
2022/03/05 04:46:57;;;;;;;11.80;2.33;;;;;;;;;;5080326;28;20105;-73
2022/03/05 04:49:23;;;;;;;5.07;1.58;;;;;;;;;;5080028;28;20052;-73
2022/03/05 04:51:50;;;;;;;4.95;2.15;;;;;;;;;;5081123;28;20135;-73
2022/03/05 04:54:25;;;;;;;7.93;2.40;;;;;;;;;;5082412;28;20076;-73
2022/03/05 04:56:52;;;;;;;3.93;2.30;;;;;;;;;;5084829;28;20583;-73
2022/03/05 04:59:18;;;;;;;3.97;1.60;;;;;;;;;;5079174;28;20051;-73
2022/03/05 05:01:46;;;;;;;12.23;3.40;;;;;;;;;;5080885;28;20998;-73
2022/03/05 05:04:13;;;;;;;2.53;1.77;;;;;;;;;;5080622;28;20286;-73
2022/03/05 05:06:39;;;;;;;5.00;1.58;;;;;;;;;;5080357;28;20040;-73
2022/03/05 05:09:06;;;;;;;2.70;1.42;;;;;;;;;;5080456;28;20148;-73
2022/03/05 05:11:33;;;;;;;9.02;2.28;;;;;;;;;;5080016;28;20101;-73
2022/03/05 05:13:59;;;;;;;3.38;1.80;;;;;;;;;;5080450;28;20083;-73
2022/03/05 05:16:26;;;;;;;4.38;1.40;;;;;;;;;;5081001;28;20048;-73
2022/03/05 05:21:44;;;;;;;6.10;2.03;;;;;;;;;;5084550;28;20495;-73
2022/03/05 05:24:10;;;;;;;2.75;1.65;;;;;;;;;;5069825;28;20175;-73
2022/03/05 05:26:37;;;;;;;6.18;2.00;;;;;;;;;;5079302;28;20131;-73
2022/03/05 05:29:10;;;;;;;5.80;2.00;;;;;;;;;;5081665;28;20139;-73
2022/03/05 05:31:57;;;;;;;5.77;2.20;;;;;;;;;;5079874;28;20054;-73
2022/03/05 05:34:30;;;;;;;6.50;2.00;;;;;;;;;;5080054;28;20080;-73
2022/03/05 05:36:56;;;;;;;3.93;2.30;;;;;;;;;;5084425;28;20131;-73
2022/03/05 05:39:23;;;;;;;5.10;2.03;;;;;;;;;;5082087;28;20125;-73
2022/03/05 05:41:56;;;;;;;5.83;3.03;;;;;;;;;;5077281;28;20555;-73
2022/03/05 05:44:22;;;;;;;4.22;2.75;;;;;;;;;;5081137;28;20127;-73
2022/03/05 05:46:49;;;;;;;4.95;2.20;;;;;;;;;;5080385;28;20048;-73
2022/03/05 05:49:22;;;;;;;4.33;2.50;;;;;;;;;;5080527;28;20055;-73
2022/03/05 05:51:48;;;;;;;6.57;2.47;;;;;;;;;;5081000;28;20048;-73
2022/03/05 05:54:15;;;;;;;3.97;2.00;;;;;;;;;;5075949;28;20090;-73
2022/03/05 05:56:42;;;;;;;5.45;2.50;;;;;;;;;;5079398;28;20491;-74
2022/03/05 05:59:08;;;;;;;2.40;1.77;;;;;;;;;;5078716;28;20562;-73
2022/03/05 06:01:35;;;;;;;7.60;2.08;;;;;;;;;;5079050;28;20128;-73
2022/03/05 06:04:02;;;;;;;4.13;2.13;;;;;;;;;;5080033;28;20052;-74
2022/03/05 06:06:28;;;;;;;5.15;2.53;;;;;;;;;;5078289;28;20066;-73
2022/03/05 06:08:55;;;;;;;4.82;1.88;;;;;;;;;;5077301;28;20052;-73
2022/03/05 06:11:23;;;;;;;8.17;2.70;;;;;;;;;;5078946;28;20075;-73
2022/03/05 06:13:49;;;;;;;4.60;1.73;;;;;;;;;;5077344;28;20095;-73
2022/03/05 06:16:16;;;;;;;4.47;2.60;;;;;;;;;;5069499;28;20059;-73
2022/03/05 06:18:46;;;;;;;4.70;2.40;;;;;;;;;;5079104;28;20077;-73
2022/03/05 06:21:13;;;;;;;3.42;1.90;;;;;;;;;;5075564;28;20470;-73
2022/03/05 06:23:39;;;;;;;7.78;2.05;;;;;;;;;;5079299;28;20443;-73
2022/03/05 06:26:06;;;;;;;3.42;1.95;;;;;;;;;;5077119;28;20135;-73
2022/03/05 06:28:33;;;;;;;4.30;1.83;;;;;;;;;;5074235;28;20567;-73
2022/03/05 06:30:59;;;;;;;3.28;1.80;;;;;;;;;;5073921;28;20079;-73
2022/03/05 06:33:30;;;;;;;7.67;2.17;;;;;;;;;;5076600;28;20467;-73
2022/03/05 06:35:57;;;;;;;9.90;2.63;;;;;;;;;;5073721;28;20179;-73
2022/03/05 06:38:23;;;;;;;7.68;2.38;;;;;;;;;;5075957;28;20050;-73
2022/03/05 06:40:57;;;;;;;4.10;1.90;;;;;;;;;;5072189;28;20048;-72
2022/03/05 06:43:24;;;;;;;5.63;2.47;;;;;;;;;;5047859;28;20496;-73
2022/03/05 06:45:51;;;;;;;5.07;2.20;;;;;;;;;;5072739;28;20083;-72
2022/03/05 06:48:18;;;;;;;2.80;1.88;;;;;;;;;;5077551;28;20852;-73
2022/03/05 06:50:44;;;;;;;10.20;2.13;;;;;;;;;;5074932;28;20080;-73
2022/03/05 06:53:10;;;;;;;6.53;3.10;;;;;;;;;;5072109;28;20140;-72
2022/03/05 06:55:38;;;;;;;;;;;;;;;;;;5073580;28;20137;-73
2022/03/05 06:58:04;;;;;;;6.80;2.30;;;;;;;;;;5072663;28;20003;-72
2022/03/05 07:00:31;;;;;;;3.30;1.58;;;;;;;;;;5072577;28;20147;-72
2022/03/05 07:03:04;;;;;;;9.33;3.00;;;;;;;;;;5072745;28;20059;-73
2022/03/05 07:05:31;;;;;;;6.72;2.33;;;;;;;;;;5077523;28;20048;-72
2022/03/05 07:07:57;;;;;;;5.03;2.10;;;;;;;;;;5074308;28;20194;-72
2022/03/05 07:10:24;;;;;;;;;;;;;;;;;;5076781;28;20154;-72
2022/03/05 07:12:51;;;;;;;4.60;2.20;;;;;;;;;;5080329;28;19959;-72
2022/03/05 07:15:17;;;;;;;6.30;2.15;;;;;;;;;;5076472;28;20137;-71
2022/03/05 07:17:47;;;;;;;5.17;2.30;;;;;;;;;;5074949;28;21021;-71
2022/03/05 07:20:13;;;;;;;6.05;2.38;;;;;;;;;;5080558;28;20564;-71
2022/03/05 07:22:39;;;;;;;4.27;1.70;;;;;;;;;;5081170;28;20555;-71
2022/03/05 07:25:09;;;;;;;5.30;2.10;;;;;;;;;;5077456;28;20084;-71
2022/03/05 07:27:36;;;;;;;6.15;2.67;;;;;;;;;;5077395;28;20131;-73
2022/03/05 07:30:02;;;;;;;7.28;2.70;;;;;;;;;;5080970;28;20673;-72
2022/03/05 07:32:29;;;;;;;4.72;2.70;;;;;;;;;;5079871;28;20044;-72
2022/03/05 07:34:55;;;;;;;4.68;2.53;;;;;;;;;;5079495;28;20083;-73
2022/03/05 07:40:07;;;;;;;4.28;2.40;;;;;;;;;;5408366;23;20462;-73
2022/03/05 07:42:34;;;;;;;8.40;2.33;;;;;;;;;;4940443;28;20134;-74
2022/03/05 07:45:00;;;;;;;5.50;2.08;;;;;;;;;;4939339;28;20078;-74
2022/03/05 07:47:26;;;;;;;4.47;2.00;;;;;;;;;;4941723;28;20875;-75
2022/03/05 07:49:54;;;;;;;;;;;;;;;;;;4941895;28;20081;-75
2022/03/05 07:52:20;;;;;;;5.20;2.10;;;;;;;;;;4963510;28;19993;-75
2022/03/05 07:54:46;;;;;;;8.18;2.35;;;;;;;;;;4962948;28;20470;-75
2022/03/05 07:57:15;;;;;;;6.13;2.13;;;;;;;;;;4961407;28;20066;-75
2022/03/05 07:59:42;;;;;;;5.22;1.98;;;;;;;;;;4965852;28;20130;-75
2022/03/05 08:02:10;;;;;;;;;;;;;;;;;;4964373;28;20058;-75
2022/03/05 08:04:37;;;;;;;9.15;2.38;;;;;;;;;;4962805;28;19922;-73
2022/03/05 08:07:24;;;;;;;4.45;1.92;;;;;;;;;;4965562;28;20105;-73
2022/03/05 08:09:51;;;;;;;5.55;2.20;;;;;;;;;;4967712;28;20051;-73
2022/03/05 08:12:17;;;;;;;5.93;2.53;;;;;;;;;;4967845;28;20157;-73
2022/03/05 08:14:44;;;;;;;3.50;1.90;;;;;;;;;;4964184;28;20074;-73
2022/03/05 08:17:13;;;;;;;7.35;2.55;;;;;;;;;;4966715;28;20820;-73
2022/03/05 08:19:39;;;;;;;12.27;2.70;;;;;;;;;;4964771;28;20043;-73
2022/03/05 08:22:19;;;;;;;7.20;2.47;;;;;;;;;;4963950;28;20082;-72
2022/03/05 08:24:48;;;;;;;4.53;2.58;;;;;;;;;;4962912;28;20075;-72
2022/03/05 08:27:14;;;;;;;9.50;3.28;;;;;;;;;;4963583;28;20074;-72
2022/03/05 08:29:41;;;;;;;7.65;3.17;;;;;;;;;;4969265;28;20129;-72
2022/03/05 08:32:14;;;;;;;9.68;2.70;;;;;;;;;;4966644;28;20086;-71
2022/03/05 08:34:40;;;;;;;6.55;2.92;;;;;;;;;;4966571;28;20109;-71
2022/03/05 08:37:07;;;;;;;7.53;2.95;;;;;;;;;;4963157;28;20130;-72
2022/03/05 08:39:33;;;;;;;4.88;3.05;;;;;;;;;;4969220;28;20063;-71
2022/03/05 08:42:00;;;;;;;6.30;2.90;;;;;;;;;;4964624;28;20075;-71
2022/03/05 08:44:26;;;;;;;7.63;3.50;;;;;;;;;;4961754;28;20145;-70
2022/03/05 08:46:55;;;;;;;7.75;2.90;;;;;;;;;;4956606;28;20410;-70
2022/03/05 08:49:22;;;;;;;9.52;3.35;;;;;;;;;;4961580;28;20425;-70
2022/03/05 08:51:48;;;;;;;8.67;2.87;;;;;;;;;;4967144;28;20050;-70
2022/03/05 08:54:21;;;;;;;10.05;2.90;;;;;;;;;;4964990;28;20142;-70
2022/03/05 08:56:48;;;;;;;9.03;3.17;;;;;;;;;;4962125;28;20271;-70
2022/03/05 08:59:14;;;;;;;4.00;2.35;;;;;;;;;;4959953;28;20113;-70
2022/03/05 09:01:41;;;;;;;14.85;4.00;;;;;;;;;;4962488;28;20557;-70
2022/03/05 09:04:08;;;;;;;10.48;3.88;;;;;;;;;;4963866;28;20050;-70
2022/03/05 09:06:34;;;;;;;8.70;3.20;;;;;;;;;;4963037;28;20130;-70
2022/03/05 09:09:02;;;;;;;8.32;3.55;;;;;;;;;;4960209;28;20502;-70
2022/03/05 09:11:28;;;;;;;9.90;3.60;;;;;;;;;;4964170;28;20047;-70
2022/03/05 09:13:54;;;;;;;10.30;3.60;;;;;;;;;;4961434;28;20138;-70
2022/03/05 09:16:21;;;;;;;7.20;3.37;;;;;;;;;;4960651;28;20066;-70
2022/03/05 09:18:48;;;;;;;14.07;4.35;;;;;;;;;;4964648;28;20062;-70
2022/03/05 09:21:14;;;;;;;11.60;3.63;;;;;;;;;;4961846;28;20138;-70
2022/03/05 09:23:41;;;;;;;7.93;3.75;;;;;;;;;;4958929;28;20087;-69
2022/03/05 09:26:07;;;;;;;10.00;3.67;;;;;;;;;;4962398;28;20134;-69
2022/03/05 09:28:33;;;;;;;9.85;4.20;;;;;;;;;;4959455;28;20118;-69
2022/03/05 09:31:00;;;;;;;8.45;3.90;;;;;;;;;;4960415;28;20133;-70
2022/03/05 09:33:27;;;;;;;12.43;4.20;;;;;;;;;;4961035;28;20586;-69
2022/03/05 09:35:54;;;;;;;13.70;4.85;;;;;;;;;;4964886;28;20667;-69
2022/03/05 09:38:21;;;;;;;11.90;4.22;;;;;;;;;;4962395;28;20723;-70
2022/03/05 09:40:48;;;;;;;9.43;4.18;;;;;;;;;;4955557;28;20748;-69
2022/03/05 09:43:17;;;;;;;9.20;4.10;;;;;;;;;;4961463;28;20125;-69
2022/03/05 09:45:44;;;;;;;12.02;4.65;;;;;;;;;;4957554;28;20082;-69
2022/03/05 09:48:17;;;;;;;12.48;4.63;;;;;;;;;;4959735;28;20150;-69
2022/03/05 09:50:44;;;;;;;8.30;3.83;;;;;;;;;;4958095;28;20128;-69
2022/03/05 09:53:10;;;;;;;11.68;3.63;;;;;;;;;;4962478;28;20085;-70
2022/03/05 09:55:37;;;;;;;7.60;3.65;;;;;;;;;;4964696;28;20473;-69
2022/03/05 09:58:24;;;;;;;7.75;3.60;;;;;;;;;;4962604;28;20054;-69
2022/03/05 10:00:51;;;;;;;9.80;3.80;;;;;;;;;;4960395;28;20134;-70
2022/03/05 10:03:18;;;;;;;;;;;;;;;;;;4964493;28;20133;-70
2022/03/05 10:05:45;;;;;;;10.68;4.30;;;;;;;;;;4964478;28;20024;-69
2022/03/05 10:08:15;;;;;;;12.10;4.67;;;;;;;;;;4961456;28;20134;-69
2022/03/05 10:10:55;;;;;;;10.38;3.75;;;;;;;;;;4960149;28;20083;-69
2022/03/05 10:13:28;;;;;;;13.48;4.00;;;;;;;;;;4962728;28;20106;-69
2022/03/05 10:15:59;;;;;;;9.07;4.00;;;;;;;;;;4963590;28;20054;-69
2022/03/05 10:18:26;;;;;;;10.55;4.15;;;;;;;;;;4961940;28;20593;-70
2022/03/05 10:20:53;;;;;;;8.20;4.23;;;;;;;;;;4961029;28;20138;-70
2022/03/05 10:23:20;;;;;;;11.57;4.32;;;;;;;;;;4961059;28;20330;-70
2022/03/05 10:25:52;;;;;;;10.20;4.05;;;;;;;;;;4962099;28;20073;-69
2022/03/05 10:28:23;;;;;;;9.48;4.07;;;;;;;;;;4961174;28;20129;-70
2022/03/05 10:30:52;;;;;;;13.20;4.50;;;;;;;;;;4961247;28;20074;-70
2022/03/05 10:33:32;;;;;;;32.80;14.93;;;;;;;;;;4959056;28;20130;-70
2022/03/05 10:36:00;;;;;;;9.82;4.63;;;;;;;;;;4960854;28;20471;-69
2022/03/05 10:38:42;;;;;;;9.23;3.75;;;;;;;;;;4960584;28;20930;-70
2022/03/05 10:41:08;;;;;;;9.00;5.22;;;;;;;;;;4956880;28;20135;-70
2022/03/05 10:43:35;;;;;;;11.02;4.22;;;;;;;;;;4960482;28;20495;-70
2022/03/05 10:46:01;;;;;;;12.00;4.00;;;;;;;;;;4962484;28;20139;-69
2022/03/05 10:48:29;;;;;;;10.37;4.50;;;;;;;;;;4966483;28;20463;-70
2022/03/05 10:50:56;;;;;;;;;;;;;;;;;;4958746;28;20402;-69
2022/03/05 10:53:41;;;;;;;9.07;3.90;;;;;;;;;;4962916;28;19973;-69
2022/03/05 10:56:23;;;;;;;10.35;3.90;;;;;;;;;;4960287;28;20112;-70
2022/03/05 10:59:08;;;;;;;6.47;3.67;;;;;;;;;;4962881;28;20166;-70
2022/03/05 11:01:37;;;;;;;7.25;3.50;;;;;;;;;;4963766;28;20563;-70
2022/03/05 11:04:04;;;;;;;12.77;3.75;;;;;;;;;;4961533;28;20047;-69
2022/03/05 11:06:31;;;;;;;7.65;4.35;;;;;;;;;;4960976;28;20082;-70
2022/03/05 11:08:58;;;;;;;5.10;2.63;;;;;;;;;;4966325;28;20096;-69
2022/03/05 11:11:24;;;;;;;13.13;4.17;;;;;;;;;;4959042;28;20141;-70
2022/03/05 11:13:51;;;;;;;8.70;3.58;;;;;;;;;;4961770;28;20074;-69
2022/03/05 11:16:19;;;;;;;7.50;3.78;;;;;;;;;;4960227;28;20051;-69
2022/03/05 11:18:45;;;;;;;9.98;3.83;;;;;;;;;;4958968;28;20090;-70
2022/03/05 11:21:11;;;;;;;13.32;4.30;;;;;;;;;;4962805;28;20083;-70
2022/03/05 11:23:41;;;;;;;8.68;4.05;;;;;;;;;;4958690;28;20070;-70
2022/03/05 11:26:08;;;;;;;9.13;4.18;;;;;;;;;;4960983;28;20146;-69
2022/03/05 11:28:36;;;;;;;9.60;3.25;;;;;;;;;;4962956;28;20070;-69
2022/03/05 11:31:18;;;;;;;7.05;3.45;;;;;;;;;;4962293;28;20138;-70
2022/03/05 11:33:45;;;;;;;10.45;3.65;;;;;;;;;;4967623;28;20075;-69
2022/03/05 11:36:31;;;;;;;11.15;3.85;;;;;;;;;;4964863;28;20143;-70
2022/03/05 11:39:05;;;;;;;7.82;3.45;;;;;;;;;;4965939;28;20047;-70
2022/03/05 11:42:03;;;;;;;13.52;3.95;;;;;;;;;;4960866;28;20153;-70
2022/03/05 11:44:36;;;;;;;8.00;3.40;;;;;;;;;;4961724;28;20508;-70
2022/03/05 11:47:19;;;;;;;10.15;4.13;;;;;;;;;;4965527;28;20050;-69
2022/03/05 11:50:00;;;;;;;9.07;3.90;;;;;;;;;;4965306;28;20074;-69
2022/03/05 11:52:39;;;;;;;9.68;3.85;;;;;;;;;;4965468;28;20494;-69
2022/03/05 11:55:15;;;;;;;13.57;4.00;;;;;;;;;;4963654;28;20082;-70
2022/03/05 11:57:43;;;;;;;13.23;4.45;;;;;;;;;;4964522;28;20141;-69
2022/03/05 12:00:10;;;;;;;12.45;4.82;;;;;;;;;;4960206;28;20133;-69
2022/03/05 12:02:43;;;;;;;14.25;4.07;;;;;;;;;;4966710;28;20082;-69
2022/03/05 12:05:30;;;;;;;7.95;3.72;;;;;;;;;;4964773;28;20138;-69
2022/03/05 12:07:56;;;;;;;10.85;4.22;;;;;;;;;;4966120;28;20079;-69
2022/03/05 12:10:31;;;;;;;15.77;5.10;;;;;;;;;;4966137;28;20108;-69
2022/03/05 12:12:59;;;;;;;13.73;4.63;;;;;;;;;;4962988;28;20085;-70
2022/03/05 12:15:39;;;;;;;9.60;4.07;;;;;;;;;;4962831;28;20085;-69
2022/03/05 12:18:16;;;;;;;8.93;3.67;;;;;;;;;;4942419;28;20044;-70
2022/03/05 12:20:43;;;;;;;8.10;3.78;;;;;;;;;;4946270;28;20499;-70
2022/03/05 12:23:11;;;;;;;14.10;3.90;;;;;;;;;;4943669;28;20127;-70
2022/03/05 12:25:38;;;;;;;7.93;3.40;;;;;;;;;;4945693;29;20061;-70
2022/03/05 12:28:06;;;;;;;9.90;3.53;;;;;;;;;;4940264;29;20082;-70
2022/03/05 12:30:37;;;;;;;7.40;3.67;;;;;;;;;;4944044;28;20146;-70
2022/03/05 12:33:05;;;;;;;7.05;3.50;;;;;;;;;;4962477;28;20042;-70
2022/03/05 12:35:32;;;;;;;8.02;3.50;;;;;;;;;;4962030;28;20137;-70
2022/03/05 12:38:06;;;;;;;9.52;3.33;;;;;;;;;;4962359;28;20058;-70
2022/03/05 12:40:37;;;;;;;5.40;3.20;;;;;;;;;;4962308;28;20063;-70
2022/03/05 12:43:05;;;;;;;11.60;3.92;;;;;;;;;;4962098;28;20142;-70
2022/03/05 12:45:31;;;;;;;;;;;;;;;;;;4959483;28;20062;-70
2022/03/05 12:47:59;;;;;;;8.77;3.40;;;;;;;;;;4966329;28;20017;-69
2022/03/05 12:50:30;;;;;;;10.38;3.75;;;;;;;;;;4963379;28;20051;-69
2022/03/05 12:52:57;;;;;;;10.93;4.30;;;;;;;;;;4962145;28;20074;-69
2022/03/05 12:55:25;;;;;;;12.57;3.70;;;;;;;;;;4964486;28;20449;-69
2022/03/05 12:58:06;;;;;;;7.72;3.20;;;;;;;;;;4940882;28;20139;-69
2022/03/05 13:00:33;;;;;;;8.68;3.05;;;;;;;;;;4943932;28;20051;-69
2022/03/05 13:03:03;;;;;;;10.20;3.50;;;;;;;;;;4943581;28;20047;-69
2022/03/05 13:05:29;;;;;;;8.60;3.80;;;;;;;;;;4945174;28;20170;-69
2022/03/05 13:07:56;;;;;;;9.25;4.65;;;;;;;;;;4941142;28;20071;-69
2022/03/05 13:10:23;;;;;;;11.55;3.55;;;;;;;;;;4946507;28;20090;-69
2022/03/05 13:12:51;;;;;;;7.35;3.22;;;;;;;;;;4965875;28;20126;-69
2022/03/05 13:15:29;;;;;;;7.00;2.80;;;;;;;;;;4964106;28;20138;-69
2022/03/05 13:18:08;;;;;;;9.38;2.90;;;;;;;;;;4962458;28;20079;-69
2022/03/05 13:20:35;;;;;;;5.18;2.90;;;;;;;;;;4965256;28;22111;-70
2022/03/05 13:23:08;;;;;;;6.00;2.75;;;;;;;;;;4946827;28;20130;-70
2022/03/05 13:25:38;;;;;;;7.45;3.00;;;;;;;;;;4944609;28;20110;-71
2022/03/05 13:28:05;;;;;;;10.05;2.90;;;;;;;;;;4946332;28;20493;-71
2022/03/05 13:30:32;;;;;;;7.28;3.10;;;;;;;;;;4945066;28;20139;-70
2022/03/05 13:32:58;;;;;;;10.25;3.28;;;;;;;;;;4942207;28;20147;-70
2022/03/05 13:35:27;;;;;;;11.80;3.40;;;;;;;;;;4962723;28;20157;-70
2022/03/05 13:38:01;;;;;;;11.52;3.55;;;;;;;;;;4956539;28;20129;-70
2022/03/05 13:40:28;;;;;;;8.05;3.10;;;;;;;;;;4962559;28;20395;-70
2022/03/05 13:42:55;;;;;;;12.18;2.88;;;;;;;;;;4962343;28;20570;-70
2022/03/05 13:45:25;;;;;;;9.10;2.95;;;;;;;;;;4957979;28;20078;-70
2022/03/05 13:47:51;;;;;;;7.78;2.40;;;;;;;;;;4961988;28;20077;-70
2022/03/05 13:50:19;;;;;;;6.88;2.67;;;;;;;;;;4960772;28;20055;-70
2022/03/05 13:52:52;;;;;;;7.18;2.50;;;;;;;;;;4959813;28;20103;-70
2022/03/05 13:55:20;;;;;;;6.10;2.50;;;;;;;;;;4957457;28;20082;-70
2022/03/05 13:57:48;;;;;;;6.13;2.80;;;;;;;;;;4963487;28;20697;-70
2022/03/05 14:00:14;;;;;;;;;;;;;;;;;;4960232;28;20541;-70
2022/03/05 14:02:44;;;;;;;5.95;2.75;;;;;;;;;;4962652;28;19965;-69
2022/03/05 14:05:12;;;;;;;9.55;2.90;;;;;;;;;;4960753;28;20682;-70
2022/03/05 14:07:38;;;;;;;;;;;;;;;;;;4961478;28;20081;-70
2022/03/05 14:10:06;;;;;;;9.23;2.90;;;;;;;;;;4946965;28;20392;-70
2022/03/05 14:12:33;;;;;;;5.78;2.80;;;;;;;;;;4965014;28;20163;-70
2022/03/05 14:15:00;;;;;;;8.50;3.00;;;;;;;;;;4963452;28;20106;-70
2022/03/05 14:17:29;;;;;;;9.73;2.42;;;;;;;;;;4961219;28;20132;-70
2022/03/05 14:20:10;;;;;;;5.25;2.63;;;;;;;;;;4958183;28;20074;-70
2022/03/05 14:22:53;;;;;;;10.18;3.92;;;;;;;;;;4961414;28;20463;-70
2022/03/05 14:25:23;;;;;;;7.43;2.88;;;;;;;;;;4960886;28;20126;-70
2022/03/05 14:27:57;;;;;;;6.95;2.97;;;;;;;;;;4961313;28;20089;-70
2022/03/05 14:30:25;;;;;;;9.23;2.70;;;;;;;;;;4963003;28;20551;-70
2022/03/05 14:32:52;;;;;;;8.70;3.05;;;;;;;;;;4963069;28;20495;-70
2022/03/05 14:35:26;;;;;;;6.68;2.70;;;;;;;;;;4962600;28;20551;-70
2022/03/05 14:37:52;;;;;;;8.43;2.47;;;;;;;;;;4958652;28;20086;-70
2022/03/05 14:40:29;;;;;;;11.10;3.70;;;;;;;;;;4960549;28;20874;-70
2022/03/05 14:42:56;;;;;;;7.15;3.20;;;;;;;;;;4957150;28;20193;-70
2022/03/05 14:45:29;;;;;;;8.10;3.10;;;;;;;;;;4960081;28;20509;-69
2022/03/05 14:47:56;;;;;;;7.60;2.90;;;;;;;;;;4956839;28;20054;-69
2022/03/05 14:50:24;;;;;;;9.57;2.78;;;;;;;;;;4956050;28;20135;-69
2022/03/05 14:52:50;;;;;;;11.77;2.95;;;;;;;;;;4959286;28;20066;-69
2022/03/05 14:55:18;;;;;;;9.90;2.92;;;;;;;;;;4960187;28;20046;-69
2022/03/05 14:58:01;;;;;;;11.25;3.10;;;;;;;;;;4960764;28;20514;-71
2022/03/05 15:00:28;;;;;;;7.47;2.90;;;;;;;;;;4944162;28;20474;-72